createdAt,value
2022-07-27T00:02:02.240Z,1.00
2022-07-27T00:07:05.024Z,1.27
2022-07-27T00:12:07.648Z,1.00
2022-07-27T00:17:10.360Z,1.58
2022-07-27T00:22:12.981Z,1.60
2022-07-27T00:27:15.662Z,1.40
2022-07-27T00:32:18.330Z,1.23
2022-07-27T00:37:20.978Z,1.25
2022-07-27T00:42:28.443Z,1.20
2022-07-27T00:47:31.524Z,1.60
2022-07-27T00:52:34.875Z,1.58
2022-07-27T00:57:58.262Z,1.35
2022-07-27T01:03:02.474Z,1.23
2022-07-27T01:08:14.467Z,1.70
2022-07-27T01:13:17.803Z,1.38
2022-07-27T01:18:28.479Z,1.50
2022-07-27T01:23:34.754Z,1.92
2022-07-27T01:28:37.347Z,1.60
2022-07-27T01:33:39.837Z,1.63
2022-07-27T01:38:42.797Z,1.50
2022-07-27T01:43:46.476Z,1.98
2022-07-27T01:48:48.997Z,1.80
2022-07-27T01:53:51.649Z,1.60
2022-07-27T01:58:55.329Z,1.90
2022-07-27T02:03:57.969Z,1.88
2022-07-27T02:09:01.791Z,2.13
2022-07-27T02:14:04.343Z,2.10
2022-07-27T02:19:07.003Z,2.70
2022-07-27T02:24:11.494Z,2.97
2022-07-27T02:29:14.302Z,2.50
2022-07-27T02:34:17.985Z,2.70
2022-07-27T02:39:20.627Z,2.90
2022-07-27T02:44:23.265Z,3.10
2022-07-27T02:49:25.923Z,3.50
2022-07-27T02:54:29.549Z,3.20
2022-07-27T02:59:32.261Z,3.25
2022-07-27T03:04:35.142Z,3.00
2022-07-27T03:09:38.099Z,3.30
2022-07-27T03:14:40.555Z,2.80
2022-07-27T03:19:43.031Z,3.42
2022-07-27T03:24:46.750Z,3.20
2022-07-27T03:29:49.649Z,2.97
2022-07-27T03:34:52.434Z,2.60
2022-07-27T03:39:55.030Z,2.95
2022-07-27T03:44:58.392Z,2.30
2022-07-27T03:50:01.342Z,2.28
2022-07-27T03:55:04.460Z,2.72
2022-07-27T04:00:09.010Z,2.10
2022-07-27T04:05:12.188Z,1.67
2022-07-27T04:10:14.798Z,1.70
2022-07-27T04:15:19.346Z,2.40
2022-07-27T04:20:22.452Z,1.73
2022-07-27T04:25:25.256Z,2.10
2022-07-27T04:30:27.964Z,1.92
2022-07-27T04:35:30.971Z,2.17
2022-07-27T04:40:34.956Z,2.20
2022-07-27T04:45:37.940Z,1.80
2022-07-27T04:50:41.815Z,2.15
2022-07-27T04:55:46.589Z,1.75
2022-07-27T05:00:49.351Z,1.90
2022-07-27T05:05:52.260Z,2.00
2022-07-27T05:10:54.942Z,1.65
2022-07-27T05:15:57.816Z,2.03
2022-07-27T05:21:00.705Z,1.80
2022-07-27T05:26:03.597Z,1.85
2022-07-27T05:31:06.070Z,2.03
2022-07-27T05:36:08.808Z,1.77
2022-07-27T05:41:11.250Z,1.73
2022-07-27T05:46:14.493Z,1.55
2022-07-27T05:51:17.506Z,1.10
2022-07-27T05:56:20.830Z,1.35
2022-07-27T06:01:24.973Z,1.83
2022-07-27T06:06:46.559Z,1.83
2022-07-27T06:11:49.128Z,0.93
2022-07-27T06:16:51.921Z,1.20
2022-07-27T06:21:54.610Z,1.25
2022-07-27T06:26:57.545Z,1.50
2022-07-27T06:32:00.266Z,1.42
2022-07-27T06:37:04.378Z,1.60
2022-07-27T06:42:07.023Z,1.60
2022-07-27T06:47:09.607Z,1.15
2022-07-27T06:52:12.287Z,1.00
2022-07-27T06:57:15.810Z,1.55
2022-07-27T07:02:19.625Z,1.50
2022-07-27T07:07:22.453Z,2.15
2022-07-27T07:12:25.866Z,1.45
2022-07-27T07:17:29.180Z,1.77
2022-07-27T07:22:34.460Z,1.52
2022-07-27T07:27:37.111Z,1.40
2022-07-27T07:32:39.897Z,0.88
2022-07-27T07:37:42.567Z,1.13
2022-07-27T07:42:49.030Z,1.45
2022-07-27T07:47:52.167Z,1.67
2022-07-27T07:52:55.435Z,1.50
2022-07-27T07:58:00.080Z,1.30
2022-07-27T08:03:04.382Z,1.40
2022-07-27T08:08:06.999Z,1.30
2022-07-27T08:13:10.140Z,1.83
2022-07-27T08:18:12.702Z,1.48
2022-07-27T08:23:15.356Z,1.60
2022-07-27T08:28:18.028Z,1.05
2022-07-27T08:33:21.108Z,1.13
2022-07-27T08:38:24.562Z,0.77
2022-07-27T08:43:27.208Z,1.02
2022-07-27T08:48:31.911Z,1.15
2022-07-27T08:53:53.476Z,1.00
2022-07-27T08:58:57.761Z,1.40
2022-07-27T09:04:00.476Z,0.98
2022-07-27T09:09:03.230Z,1.17
2022-07-27T09:14:08.211Z,1.10
2022-07-27T09:19:11.888Z,0.80
2022-07-27T09:24:44.463Z,1.17
2022-07-27T09:29:39.530Z,1.05
2022-07-27T09:34:44.047Z,1.00
2022-07-27T09:39:47.039Z,1.02
2022-07-27T09:44:53.583Z,1.58
2022-07-27T09:50:20.702Z,1.48
2022-07-27T09:55:23.265Z,1.38
2022-07-27T10:00:27.319Z,0.90
2022-07-27T10:05:30.051Z,1.05
2022-07-27T10:10:33.222Z,1.10
2022-07-27T10:15:36.591Z,1.00
2022-07-27T10:20:47.517Z,0.90
2022-07-27T10:26:42.596Z,1.17
2022-07-27T10:31:54.169Z,1.00
2022-07-27T10:36:57.608Z,1.40
2022-07-27T10:42:19.951Z,1.27
2022-07-27T10:47:36.847Z,1.13
2022-07-27T10:53:09.352Z,1.13
2022-07-27T10:58:14.178Z,0.77
2022-07-27T11:03:27.268Z,1.00
2022-07-27T11:08:40.916Z,0.70
2022-07-27T11:13:58.212Z,1.48
2022-07-27T11:19:07.037Z,0.70
2022-07-27T11:24:15.189Z,0.98
2022-07-27T11:29:20.787Z,0.82
2022-07-27T11:34:32.014Z,0.85
2022-07-27T11:39:59.280Z,0.68
2022-07-27T11:44:58.309Z,0.98
2022-07-27T11:50:12.289Z,0.68
2022-07-27T11:55:15.343Z,0.80
2022-07-27T12:00:18.753Z,1.10
2022-07-27T12:05:21.444Z,0.90
2022-07-27T12:10:24.207Z,0.90
2022-07-27T12:15:45.287Z,0.90
2022-07-27T12:20:50.398Z,0.73
2022-07-27T12:25:54.739Z,1.00
2022-07-27T12:30:57.917Z,1.00
2022-07-27T12:36:01.463Z,1.20
2022-07-27T12:41:04.314Z,0.98
2022-07-27T12:46:15.884Z,0.80
2022-07-27T12:51:26.099Z,0.80
2022-07-27T12:56:29.276Z,0.60
2022-07-27T13:01:32.768Z,1.20
2022-07-27T13:06:35.862Z,0.60
2022-07-27T13:11:38.681Z,1.08
2022-07-27T13:16:41.627Z,0.80
2022-07-27T13:21:44.513Z,0.80
2022-07-27T13:26:49.741Z,0.45
2022-07-27T13:31:57.314Z,1.08
2022-07-27T13:37:00.323Z,0.70
2022-07-27T13:42:02.830Z,0.85
2022-07-27T13:47:06.998Z,0.70
2022-07-27T13:52:12.431Z,1.00
2022-07-27T13:57:15.157Z,0.70
2022-07-27T14:02:20.515Z,0.70
2022-07-27T14:07:28.403Z,0.90
2022-07-27T14:12:31.233Z,0.90
2022-07-27T14:17:34.005Z,1.00
2022-07-27T14:22:36.875Z,1.10
2022-07-27T14:27:39.763Z,0.90
2022-07-27T14:32:42.386Z,4.47
2022-07-27T14:37:44.925Z,1.10
2022-07-27T14:42:47.897Z,0.73
2022-07-27T14:47:51.358Z,1.77
2022-07-27T14:52:54.082Z,1.63
2022-07-27T14:57:56.677Z,0.63
2022-07-27T15:02:59.302Z,0.98
2022-07-27T15:08:02.022Z,2.60
2022-07-27T15:15:48.815Z,1.00
2022-07-27T15:20:51.673Z,1.60
2022-07-27T15:25:54.761Z,1.30
2022-07-27T15:30:57.358Z,1.40
2022-07-27T15:36:00.389Z,1.58
2022-07-27T15:41:03.099Z,1.90
2022-07-27T15:46:08.718Z,1.55
2022-07-27T15:51:13.052Z,2.75
2022-07-27T15:56:16.254Z,1.77
2022-07-27T16:01:21.043Z,2.28
2022-07-27T16:06:24.303Z,3.28
2022-07-27T16:11:27.589Z,2.83
2022-07-27T16:16:33.197Z,3.20
2022-07-27T16:21:55.133Z,3.70
2022-07-27T16:26:58.917Z,4.75
2022-07-27T16:32:03.277Z,4.25
2022-07-27T16:37:05.901Z,4.10
2022-07-27T16:42:08.689Z,4.63
2022-07-27T16:47:11.314Z,4.50
2022-07-27T16:52:14.066Z,4.60
2022-07-27T16:57:16.505Z,4.03
2022-07-27T17:02:19.252Z,4.30
2022-07-27T17:07:22.623Z,5.00
2022-07-27T17:12:38.109Z,4.95
2022-07-27T17:17:42.511Z,4.30
2022-07-27T17:22:45.325Z,5.10
2022-07-27T17:27:49.091Z,5.13
2022-07-27T17:32:54.604Z,6.80
2022-07-27T17:38:06.225Z,4.25
2022-07-27T17:43:09.593Z,4.25
2022-07-27T17:48:12.391Z,3.10
2022-07-27T17:53:15.056Z,1.80
2022-07-27T17:58:17.788Z,1.70
2022-07-27T18:03:22.018Z,1.60
2022-07-27T18:08:25.246Z,1.42
2022-07-27T18:13:39.424Z,1.98
2022-07-27T18:18:45.923Z,1.60
2022-07-27T18:23:48.715Z,1.38
2022-07-27T18:28:52.830Z,1.40
2022-07-27T18:33:56.156Z,2.38
2022-07-27T18:38:58.769Z,1.75
2022-07-27T18:44:01.353Z,1.90
2022-07-27T18:49:04.033Z,1.70
2022-07-27T18:54:07.390Z,1.80
2022-07-27T18:59:10.549Z,1.48
2022-07-27T19:04:15.740Z,3.10
2022-07-27T19:09:19.120Z,1.90
2022-07-27T19:14:23.278Z,2.50
2022-07-27T19:19:26.115Z,1.88
2022-07-27T19:24:29.267Z,1.95
2022-07-27T19:29:32.772Z,1.70
2022-07-27T19:34:36.329Z,2.10
2022-07-27T19:40:02.468Z,1.75
2022-07-27T19:45:02.513Z,1.85
2022-07-27T19:50:05.720Z,1.77
2022-07-27T19:55:09.169Z,2.72
2022-07-27T20:00:12.415Z,2.08
2022-07-27T20:05:15.203Z,2.65
2022-07-27T20:10:18.706Z,1.92
2022-07-27T20:15:22.464Z,1.65
2022-07-27T20:20:25.621Z,2.47
2022-07-27T20:25:29.039Z,1.88
2022-07-27T20:30:32.704Z,2.00
2022-07-27T20:35:37.710Z,2.00
2022-07-27T20:40:41.191Z,1.70
2022-07-27T20:45:44.533Z,3.00
2022-07-27T20:50:48.695Z,2.45
2022-07-27T20:55:52.358Z,2.78
2022-07-27T21:00:55.480Z,3.10
2022-07-27T21:05:58.435Z,2.92
2022-07-27T21:11:02.174Z,3.25
2022-07-27T21:16:05.543Z,2.47
2022-07-27T21:21:08.162Z,2.40
2022-07-27T21:26:11.573Z,2.60
2022-07-27T21:31:18.287Z,2.05
2022-07-27T21:36:21.092Z,1.90
2022-07-27T21:41:23.620Z,2.10
2022-07-27T21:46:26.731Z,2.38
2022-07-27T21:51:29.532Z,2.58
2022-07-27T21:56:41.770Z,4.00
2022-07-27T22:01:45.723Z,4.55
2022-07-27T22:06:48.342Z,4.18
2022-07-27T22:11:51.031Z,4.10
2022-07-27T22:16:53.622Z,3.65
2022-07-27T22:21:57.314Z,3.30
2022-07-27T22:26:59.840Z,3.42
2022-07-27T22:32:02.571Z,3.28
2022-07-27T22:37:05.979Z,2.97
2022-07-27T22:42:10.285Z,2.60
2022-07-27T22:47:12.770Z,3.28
2022-07-27T22:52:15.430Z,3.35
2022-07-27T22:57:18.311Z,3.22
2022-07-27T23:02:21.049Z,3.42
2022-07-27T23:07:24.008Z,3.03
2022-07-27T23:12:26.589Z,2.53
2022-07-27T23:17:29.448Z,2.30
2022-07-27T23:22:32.863Z,3.05
2022-07-27T23:27:37.166Z,2.45
2022-07-27T23:32:40.278Z,2.67
2022-07-27T23:37:44.574Z,2.40
2022-07-27T23:42:48.347Z,2.78
2022-07-27T23:47:51.266Z,2.75
2022-07-27T23:52:55.200Z,2.72
2022-07-27T23:57:57.685Z,2.72
